Time;durP1;ratioP1;P1;durP2;ratioP2;P2;SDS_P1;SDS_P2;PMS_P1;PMS_P2;Temp;Humidity;BMP_temperature;BMP_pressure;BME280_temperature;BME280_humidity;BME280_pressure;Samples;Min_cycle;Max_cycle;Signal;HPM_P1;HPM_P2
2022/01/05 00:01:20;;;;;;;7.57;5.78;;;;;;;19.54;46.49;100137.28;5013884;28;20049;-81
2022/01/05 00:03:48;;;;;;;5.93;5.32;;;;;;;19.54;46.27;100131.91;5011926;28;20050;-81
2022/01/05 00:06:15;;;;;;;6.75;5.55;;;;;;;19.52;46.03;100124.00;5013851;28;20045;-80
2022/01/05 00:08:43;;;;;;;7.53;5.43;;;;;;;19.52;46.07;100122.16;5014305;28;20061;-81
2022/01/05 00:11:10;;;;;;;6.05;5.45;;;;;;;19.53;46.14;100109.59;5017073;28;20056;-81
2022/01/05 00:13:42;;;;;;;6.63;5.32;;;;;;;19.53;45.96;100117.66;5017285;28;20401;-80
2022/01/05 00:16:10;;;;;;;6.03;5.28;;;;;;;19.53;45.90;100114.97;5015235;28;20497;-80
2022/01/05 00:18:37;;;;;;;7.53;5.80;;;;;;;19.53;45.84;100112.28;5016328;28;20045;-80
2022/01/05 00:21:05;;;;;;;7.25;5.60;;;;;;;19.53;45.70;100101.53;5017342;28;20401;-80
2022/01/05 00:23:32;;;;;;;5.90;5.30;;;;;;;19.53;45.65;100088.13;5025176;28;20030;-80
2022/01/05 00:26:03;;;;;;;6.78;4.93;;;;;;;19.55;45.77;100096.00;5016955;28;20042;-80
2022/01/05 00:28:31;;;;;;;5.78;5.10;;;;;;;19.54;45.38;100089.81;5015738;28;20069;-81
2022/01/05 00:30:58;;;;;;;5.80;5.20;;;;;;;19.55;45.61;100078.06;5016948;28;20403;-81
2022/01/05 00:33:26;;;;;;;5.57;4.80;;;;;;;19.56;45.41;100068.16;5016921;28;20401;-80
2022/01/05 00:35:53;;;;;;;6.70;5.75;;;;;;;19.57;45.45;100062.66;5016461;28;20374;-81
2022/01/05 00:38:21;;;;;;;5.88;5.28;;;;;;;19.59;45.24;100078.59;5015045;28;20441;-81
2022/01/05 00:40:48;;;;;;;5.50;4.95;;;;;;;19.59;45.25;100071.38;5015945;28;20038;-81
2022/01/05 00:43:16;;;;;;;6.30;5.50;;;;;;;19.60;45.00;100061.50;5017071;28;20058;-80
2022/01/05 00:45:43;;;;;;;6.97;5.63;;;;;;;19.62;44.99;100065.75;5016403;28;20053;-81
2022/01/05 00:48:10;;;;;;;6.57;5.60;;;;;;;19.63;45.11;100059.38;5014914;28;20053;-81
2022/01/05 00:50:38;;;;;;;5.57;4.97;;;;;;;19.65;45.13;100053.88;5016235;28;20049;-81
2022/01/05 00:53:05;;;;;;;5.90;4.70;;;;;;;19.64;44.97;100058.38;5016565;28;20057;-81
2022/01/05 00:55:32;;;;;;;6.97;6.28;;;;;;;19.66;45.09;100042.97;5016412;28;20485;-81
2022/01/05 00:58:00;;;;;;;6.40;4.70;;;;;;;19.67;44.83;100051.88;5014836;28;20405;-81
2022/01/05 01:00:27;;;;;;;6.70;5.07;;;;;;;19.68;44.87;100029.38;5015781;28;20049;-81
2022/01/05 01:02:54;;;;;;;5.50;5.00;;;;;;;19.70;44.96;100041.66;5015920;28;20065;-81
2022/01/05 01:05:22;;;;;;;5.68;5.07;;;;;;;19.72;44.88;100025.41;5016801;28;20049;-81
2022/01/05 01:07:49;;;;;;;6.25;5.30;;;;;;;19.73;44.88;100029.78;5015000;28;20069;-81
2022/01/05 01:10:18;;;;;;;5.25;4.75;;;;;;;19.74;44.75;100029.63;5016641;28;20054;-81
2022/01/05 01:12:45;;;;;;;5.50;5.00;;;;;;;19.75;44.55;100014.34;5016274;28;20042;-81
2022/01/05 01:15:12;;;;;;;5.15;4.65;;;;;;;19.76;44.35;100011.50;5015655;28;20052;-81
2022/01/05 01:17:40;;;;;;;5.13;4.60;;;;;;;19.77;44.65;100012.38;5015410;28;20046;-81
2022/01/05 01:20:08;;;;;;;5.70;4.75;;;;;;;19.78;44.67;100002.47;5014260;28;20528;-81
2022/01/05 01:22:36;;;;;;;6.90;5.50;;;;;;;19.79;44.65;100012.19;5013949;28;20054;-81
2022/01/05 01:25:05;;;;;;;6.05;5.15;;;;;;;19.78;44.56;100007.84;5002767;28;20057;-81
2022/01/05 01:27:33;;;;;;;5.85;4.32;;;;;;;19.80;44.55;100011.19;4995544;28;20505;-81
2022/01/05 01:30:01;;;;;;;5.03;4.53;;;;;;;19.81;44.46;100023.63;5010494;28;20051;-81
2022/01/05 01:32:28;;;;;;;6.03;4.65;;;;;;;19.81;44.28;100018.25;4995966;28;20042;-81
2022/01/05 01:34:56;;;;;;;4.55;4.13;;;;;;;19.82;44.67;100009.22;4995944;28;20406;-80
2022/01/05 01:37:23;;;;;;;4.55;4.05;;;;;;;19.82;44.33;100012.75;5011147;28;20047;-80
2022/01/05 01:39:50;;;;;;;5.82;5.22;;;;;;;19.83;44.56;100014.41;5010600;28;20108;-81
2022/01/05 01:42:18;;;;;;;5.25;4.70;;;;;;;19.84;44.44;100005.34;4995142;28;20073;-81
2022/01/05 01:44:45;;;;;;;5.22;4.72;;;;;;;19.84;44.47;100004.53;4995606;28;20494;-81
2022/01/05 01:47:12;;;;;;;5.85;5.00;;;;;;;19.85;44.43;100006.19;4993419;28;20047;-81
2022/01/05 01:49:41;;;;;;;5.43;4.63;;;;;;;19.84;44.45;100002.66;4994860;28;20050;-81
2022/01/05 01:52:08;;;;;;;4.72;4.32;;;;;;;19.84;44.53;100002.66;4995523;28;20054;-81
2022/01/05 01:54:36;;;;;;;4.60;4.20;;;;;;;19.84;44.43;99989.25;4996384;28;20057;-82
2022/01/05 01:57:05;;;;;;;5.10;4.50;;;;;;;19.86;44.48;99981.03;4996058;28;20058;-81
2022/01/05 01:59:33;;;;;;;4.88;4.35;;;;;;;19.85;44.40;99990.94;4993941;28;20054;-80
2022/01/05 02:02:02;;;;;;;5.35;4.70;;;;;;;19.85;44.47;99987.41;4995347;28;20050;-80
2022/01/05 02:04:29;;;;;;;4.82;4.32;;;;;;;19.84;44.71;99988.41;4995713;28;20050;-80
2022/01/05 02:06:57;;;;;;;4.82;4.32;;;;;;;19.85;44.57;99979.34;5000841;28;20042;-80
2022/01/05 02:09:25;;;;;;;5.50;4.82;;;;;;;19.84;44.45;99980.34;5015179;28;20422;-80
2022/01/05 02:11:52;;;;;;;4.68;4.18;;;;;;;19.85;44.64;99982.03;5014381;28;20046;-80
2022/01/05 02:14:19;;;;;;;5.80;5.20;;;;;;;19.84;44.59;99978.50;5015145;28;20053;-80
2022/01/05 02:16:47;;;;;;;5.32;4.82;;;;;;;19.84;44.47;99970.44;5013821;28;20057;-81
2022/01/05 02:19:15;;;;;;;4.78;4.22;;;;;;;19.84;44.38;99954.31;5014227;28;20054;-81
2022/01/05 02:21:42;;;;;;;5.75;4.95;;;;;;;19.85;44.51;99963.22;5015526;28;20046;-81
2022/01/05 02:24:11;;;;;;;5.32;4.82;;;;;;;19.84;44.61;99954.31;5020124;28;20109;-81
2022/01/05 02:26:39;;;;;;;5.95;5.00;;;;;;;19.83;44.56;99944.59;5031756;28;20052;-81
2022/01/05 02:29:06;;;;;;;4.95;4.45;;;;;;;19.84;44.45;99927.47;5035727;28;20041;-81
2022/01/05 02:31:34;;;;;;;5.82;4.68;;;;;;;19.84;44.64;99923.94;5033897;28;20049;-81
2022/01/05 02:34:02;;;;;;;6.18;5.15;;;;;;;19.84;44.61;99923.94;5035290;28;20049;-80
2022/01/05 02:36:30;;;;;;;5.18;4.68;;;;;;;19.84;44.58;99902.44;5033180;28;20045;-80
2022/01/05 02:38:57;;;;;;;5.40;4.90;;;;;;;19.83;44.40;99893.56;5033948;28;20508;-80
2022/01/05 02:41:25;;;;;;;5.00;4.50;;;;;;;19.83;44.47;99880.13;5034160;28;20055;-80
2022/01/05 02:43:52;;;;;;;5.45;4.90;;;;;;;19.83;44.60;99881.97;5032968;28;20053;-80
2022/01/05 02:46:22;;;;;;;5.80;5.15;;;;;;;19.83;44.51;99874.75;5025720;28;20042;-81
2022/01/05 02:48:54;;;;;;;5.07;4.57;;;;;;;19.83;44.41;99865.88;5014596;28;20046;-80
2022/01/05 02:51:21;;;;;;;5.60;4.80;;;;;;;19.83;44.67;99865.88;5014747;28;20049;-80
2022/01/05 02:53:49;;;;;;;4.63;4.18;;;;;;;19.83;44.34;99852.44;5012714;28;20057;-80
2022/01/05 02:56:18;;;;;;;5.72;4.93;;;;;;;19.84;44.43;99838.81;5011529;28;20054;-80
2022/01/05 02:58:45;;;;;;;5.70;5.20;;;;;;;19.83;44.41;99829.09;5013498;28;20421;-80
2022/01/05 03:01:12;;;;;;;5.55;4.88;;;;;;;19.85;44.37;99826.25;5012899;28;20054;-80
2022/01/05 03:03:40;;;;;;;5.80;5.00;;;;;;;19.84;44.32;99838.81;5013849;28;20045;-80
2022/01/05 03:06:07;;;;;;;5.10;4.60;;;;;;;19.84;44.53;99825.41;5013953;28;20064;-81
2022/01/05 03:08:35;;;;;;;7.03;5.88;;;;;;;19.84;44.61;99825.41;5012029;28;20049;-81
2022/01/05 03:11:03;;;;;;;5.35;4.72;;;;;;;19.84;44.55;99822.72;5012054;28;20054;-80
2022/01/05 03:13:31;;;;;;;5.35;4.75;;;;;;;19.83;44.66;99817.50;5013978;28;20053;-81
2022/01/05 03:15:58;;;;;;;5.10;4.60;;;;;;;19.85;44.37;99818.19;5013161;28;20058;-81
2022/01/05 03:18:26;;;;;;;5.47;4.97;;;;;;;19.84;44.54;99819.19;5011979;28;20049;-81
2022/01/05 03:20:53;;;;;;;4.80;4.38;;;;;;;19.85;44.48;99815.50;5012803;28;20050;-81
2022/01/05 03:23:20;;;;;;;4.78;4.28;;;;;;;19.84;44.47;99813.81;5013365;28;20045;-81
2022/01/05 03:25:48;;;;;;;5.18;4.68;;;;;;;19.84;44.58;99803.06;5023870;28;20056;-80
2022/01/05 03:28:15;;;;;;;5.40;4.90;;;;;;;19.84;44.61;99800.41;5013648;28;20046;-81
2022/01/05 03:30:43;;;;;;;5.07;4.57;;;;;;;19.83;44.48;99796.03;5011833;28;20046;-81
2022/01/05 03:33:19;;;;;;;4.75;4.20;;;;;;;19.84;44.66;99805.75;5013174;28;20068;-81
2022/01/05 03:35:48;;;;;;;5.72;4.40;;;;;;;19.84;44.61;99776.22;5013364;28;20052;-81
2022/01/05 03:38:17;;;;;;;4.88;4.38;;;;;;;19.84;44.70;99773.53;5013113;28;20038;-81
2022/01/05 03:40:46;;;;;;;5.00;4.50;;;;;;;19.83;44.49;99774.53;5014520;28;20053;-82
2022/01/05 03:43:14;;;;;;;4.78;4.22;;;;;;;19.83;44.56;99777.22;5017806;28;20054;-82
2022/01/05 03:45:42;;;;;;;5.22;4.72;;;;;;;19.83;44.63;99774.53;5018062;28;20057;-82
2022/01/05 03:48:11;;;;;;;4.57;4.07;;;;;;;19.84;44.51;99776.22;5017920;28;20083;-82
2022/01/05 03:50:39;;;;;;;4.97;4.47;;;;;;;19.83;44.54;99763.81;5017813;28;20520;-82
2022/01/05 03:53:08;;;;;;;4.97;4.47;;;;;;;19.82;44.61;99764.81;5016738;28;20050;-81
2022/01/05 03:55:38;;;;;;;4.70;4.20;;;;;;;19.83;44.68;99763.81;5017882;28;20045;-82
2022/01/05 03:58:06;;;;;;;5.20;4.50;;;;;;;19.83;44.54;99758.44;5017771;28;20485;-81
2022/01/05 04:00:40;;;;;;;4.53;4.10;;;;;;;19.82;44.45;99746.00;5016421;28;20517;-81
2022/01/05 04:03:07;;;;;;;5.07;4.57;;;;;;;19.83;44.56;99736.94;5017859;28;20398;-81
2022/01/05 04:05:35;;;;;;;4.63;4.18;;;;;;;19.82;44.51;99737.97;5017068;28;20042;-81
2022/01/05 04:08:03;;;;;;;4.88;4.38;;;;;;;19.81;44.53;99731.75;5018137;28;20046;-81
2022/01/05 04:10:31;;;;;;;4.22;3.78;;;;;;;19.81;44.66;99742.50;5017386;28;20050;-81
2022/01/05 04:12:58;;;;;;;4.30;3.90;;;;;;;19.80;44.68;99727.34;5018740;28;20478;-81
2022/01/05 04:15:26;;;;;;;4.32;3.90;;;;;;;19.79;44.41;99736.41;5021180;28;20129;-81
2022/01/05 04:17:53;;;;;;;4.57;4.18;;;;;;;19.79;44.22;99739.09;5017638;28;20052;-81
2022/01/05 04:20:21;;;;;;;4.32;3.92;;;;;;;19.79;44.38;99724.84;5016082;28;20050;-81
2022/01/05 04:22:48;;;;;;;4.97;4.40;;;;;;;19.78;44.51;99734.75;5016289;28;20049;-81
2022/01/05 04:25:16;;;;;;;4.60;4.20;;;;;;;19.79;44.40;99722.16;5016541;28;20061;-81
2022/01/05 04:27:43;;;;;;;4.47;4.03;;;;;;;19.78;44.50;99734.75;5015239;28;20034;-81
2022/01/05 04:30:12;;;;;;;4.47;4.07;;;;;;;19.79;44.54;99719.47;5015114;28;20054;-81
2022/01/05 04:32:39;;;;;;;4.90;4.30;;;;;;;19.77;44.42;99727.69;5016910;28;20413;-81
2022/01/05 04:35:26;;;;;;;4.30;3.90;;;;;;;19.76;44.33;99720.63;5015913;28;20482;-81
2022/01/05 04:37:54;;;;;;;4.30;3.90;;;;;;;19.78;44.53;99717.78;5017206;28;20098;-81
2022/01/05 04:40:22;;;;;;;4.00;3.60;;;;;;;19.77;44.55;99714.28;5014342;28;20057;-81
2022/01/05 04:42:49;;;;;;;4.50;4.10;;;;;;;19.76;44.56;99705.34;5016488;28;20461;-82
2022/01/05 04:45:17;;;;;;;4.30;3.70;;;;;;;19.76;44.51;99712.56;5016774;28;20053;-81
2022/01/05 04:47:45;;;;;;;4.13;3.72;;;;;;;19.74;44.65;99707.38;4995366;28;20050;-81
2022/01/05 04:50:15;;;;;;;3.67;3.10;;;;;;;19.74;44.57;99693.94;4996710;28;20076;-81
2022/01/05 04:52:42;;;;;;;4.15;3.67;;;;;;;19.75;44.44;99705.53;4995132;28;20054;-82
2022/01/05 04:55:10;;;;;;;3.88;3.53;;;;;;;19.74;44.66;99707.38;4995760;28;20054;-82
2022/01/05 04:57:38;;;;;;;4.22;3.80;;;;;;;19.74;44.68;99695.78;4996860;28;20038;-82
2022/01/05 05:00:06;;;;;;;4.07;3.67;;;;;;;19.73;44.58;99681.53;4995551;28;20149;-82
2022/01/05 05:02:33;;;;;;;4.53;4.10;;;;;;;19.73;44.65;99678.84;4996715;28;20046;-81
2022/01/05 05:05:01;;;;;;;3.70;3.40;;;;;;;19.74;44.41;99675.16;4996640;28;20053;-81
2022/01/05 05:07:28;;;;;;;4.10;3.70;;;;;;;19.75;44.58;99675.97;4995674;28;20054;-81
2022/01/05 05:09:56;;;;;;;4.35;3.95;;;;;;;19.75;44.45;99689.41;4997267;28;20061;-81
2022/01/05 05:12:23;;;;;;;4.25;3.80;;;;;;;19.74;44.71;99696.63;4995077;28;20053;-82
2022/01/05 05:14:51;;;;;;;3.88;3.58;;;;;;;19.74;44.48;99691.25;4995729;28;20054;-81
2022/01/05 05:17:18;;;;;;;4.00;3.60;;;;;;;19.75;44.75;99692.09;4995752;28;20042;-81
2022/01/05 05:19:45;;;;;;;4.35;3.95;;;;;;;19.75;44.57;99687.56;4994313;28;20094;-82
2022/01/05 05:22:13;;;;;;;4.45;4.05;;;;;;;19.75;44.64;99681.34;4996983;28;20068;-82
2022/01/05 05:24:40;;;;;;;4.22;3.83;;;;;;;19.75;44.63;99689.41;4995131;28;20125;-81
2022/01/05 05:27:08;;;;;;;4.07;3.53;;;;;;;19.74;44.66;99680.53;5015517;28;20426;-81
2022/01/05 05:29:35;;;;;;;4.05;3.65;;;;;;;19.76;44.58;99680.34;5032765;28;20048;-81
2022/01/05 05:32:03;;;;;;;3.80;3.40;;;;;;;19.76;44.68;99657.00;5034033;28;20053;-81
2022/01/05 05:34:30;;;;;;;3.60;3.08;;;;;;;19.76;44.53;99648.97;5035272;28;20050;-81
2022/01/05 05:36:58;;;;;;;3.83;3.35;;;;;;;19.76;44.54;99658.84;5035573;28;20052;-81
2022/01/05 05:39:26;;;;;;;4.20;3.80;;;;;;;19.76;44.76;99658.84;5035671;28;20095;-81
2022/01/05 05:41:53;;;;;;;4.88;4.38;;;;;;;19.75;44.72;99658.03;5035613;28;20053;-81
2022/01/05 05:44:20;;;;;;;4.50;3.65;;;;;;;19.75;44.65;99666.06;5035430;28;20072;-82
2022/01/05 05:46:48;;;;;;;4.00;3.60;;;;;;;19.74;44.77;99655.50;5035148;28;20071;-81
2022/01/05 05:49:15;;;;;;;4.40;4.00;;;;;;;19.75;44.63;99667.94;5035257;28;20045;-81
2022/01/05 05:51:43;;;;;;;4.47;4.07;;;;;;;19.75;44.64;99665.25;5034400;28;20052;-81
2022/01/05 05:54:10;;;;;;;4.20;3.63;;;;;;;19.75;44.58;99667.94;5035142;28;20056;-81
2022/01/05 05:56:38;;;;;;;5.22;4.00;;;;;;;19.75;44.74;99659.88;5035296;28;20420;-81
2022/01/05 05:59:05;;;;;;;4.38;3.92;;;;;;;19.75;44.64;99662.56;5034251;28;20037;-82
2022/01/05 06:01:33;;;;;;;4.38;3.97;;;;;;;19.75;44.68;99657.19;5034143;28;20052;-81
2022/01/05 06:04:00;;;;;;;5.38;4.68;;;;;;;19.74;44.69;99656.34;5034943;28;20399;-82
2022/01/05 06:06:28;;;;;;;4.78;4.13;;;;;;;19.74;44.76;99668.94;5034366;28;20513;-82
2022/01/05 06:08:55;;;;;;;4.97;4.32;;;;;;;19.73;44.69;99660.03;5026364;28;20042;-82
2022/01/05 06:11:22;;;;;;;5.00;4.50;;;;;;;19.73;44.80;99657.38;5015279;28;20514;-82
2022/01/05 06:13:52;;;;;;;6.25;4.90;;;;;;;19.73;44.69;99664.59;5014443;28;20048;-82
2022/01/05 06:16:20;;;;;;;5.65;4.85;;;;;;;19.72;44.60;99650.28;5013886;28;20069;-82
2022/01/05 06:18:48;;;;;;;5.32;4.57;;;;;;;19.72;44.71;99665.56;5014892;28;20042;-82
2022/01/05 06:21:15;;;;;;;6.22;4.63;;;;;;;19.72;44.75;99654.81;5013368;28;20050;-81
2022/01/05 06:23:42;;;;;;;5.78;5.03;;;;;;;19.72;44.97;99654.81;5014404;28;20046;-81
2022/01/05 06:26:10;;;;;;;6.35;5.20;;;;;;;19.71;44.86;99655.81;5014554;28;20041;-81
2022/01/05 06:28:37;;;;;;;7.45;5.00;;;;;;;19.69;45.06;99637.22;5018143;28;20037;-81
2022/01/05 06:31:04;;;;;;;7.15;5.03;;;;;;;19.69;45.04;99634.53;5014283;28;20042;-81
2022/01/05 06:33:32;;;;;;;5.47;4.57;;;;;;;19.68;44.85;99623.94;5014808;28;20436;-81
2022/01/05 06:35:59;;;;;;;5.88;5.05;;;;;;;19.68;44.89;99600.59;5015026;28;20048;-87
2022/01/05 06:38:27;;;;;;;5.68;5.03;;;;;;;19.69;45.05;99599.63;5014073;28;20061;-82
2022/01/05 06:40:54;;;;;;;5.80;5.18;;;;;;;19.69;45.21;99601.47;5013877;28;20049;-81
2022/01/05 06:43:21;;;;;;;6.40;5.28;;;;;;;19.68;45.21;99592.53;5013874;28;20064;-81
2022/01/05 06:45:49;;;;;;;6.03;5.07;;;;;;;19.70;44.98;99603.13;5013466;28;20053;-82
2022/01/05 06:48:16;;;;;;;5.55;4.88;;;;;;;19.68;44.90;99603.28;5013571;28;20505;-82
2022/01/05 06:50:44;;;;;;;5.85;5.07;;;;;;;19.68;45.03;99605.97;5014112;28;20045;-82
2022/01/05 06:53:11;;;;;;;4.82;4.38;;;;;;;19.67;44.94;99604.28;5012905;28;20064;-82
2022/01/05 06:55:38;;;;;;;5.88;5.03;;;;;;;19.67;45.02;99604.28;5013791;28;20046;-81
2022/01/05 06:58:06;;;;;;;6.00;4.60;;;;;;;19.66;45.02;99608.00;5012046;28;20057;-82
2022/01/05 07:00:34;;;;;;;5.70;5.10;;;;;;;19.66;45.09;99599.09;5014419;28;20056;-81
2022/01/05 07:03:01;;;;;;;5.38;4.78;;;;;;;19.66;45.06;99612.53;5014393;28;20412;-81
2022/01/05 07:05:29;;;;;;;5.57;4.70;;;;;;;19.65;45.13;99625.13;5014550;28;20053;-82
2022/01/05 07:07:57;;;;;;;5.65;4.80;;;;;;;19.65;44.89;99627.81;5013951;28;20046;-81
2022/01/05 07:10:24;;;;;;;6.00;4.80;;;;;;;19.66;44.92;99615.22;5014884;28;20042;-81
2022/01/05 07:12:51;;;;;;;5.32;4.55;;;;;;;19.65;44.73;99606.31;5013475;28;20054;-81
2022/01/05 07:15:19;;;;;;;5.40;4.90;;;;;;;19.66;45.13;99610.69;5013810;28;20061;-81
2022/01/05 07:17:46;;;;;;;5.20;4.45;;;;;;;19.66;44.95;99599.09;5013892;28;20048;-81
2022/01/05 07:20:14;;;;;;;5.45;4.93;;;;;;;19.65;44.96;99603.63;5013704;28;20049;-82
2022/01/05 07:22:41;;;;;;;4.97;4.47;;;;;;;19.65;44.93;99594.75;5013380;28;20056;-82
2022/01/05 07:25:09;;;;;;;6.35;5.10;;;;;;;19.66;44.81;99593.72;5013503;28;20412;-81
2022/01/05 07:27:37;;;;;;;5.88;4.88;;;;;;;19.65;45.05;99582.16;5012724;28;20054;-81
2022/01/05 07:30:06;;;;;;;4.72;4.28;;;;;;;19.65;45.04;99592.91;5023928;28;20405;-81
2022/01/05 07:32:33;;;;;;;5.57;4.72;;;;;;;19.65;44.94;99598.25;5014202;28;20482;-81
2022/01/05 07:35:00;;;;;;;7.88;4.93;;;;;;;19.66;44.96;99580.31;5014378;28;20041;-81
2022/01/05 07:37:28;;;;;;;5.47;4.60;;;;;;;19.65;44.83;99584.84;5014501;28;20049;-82
2022/01/05 07:39:55;;;;;;;5.28;4.57;;;;;;;19.65;44.86;99592.91;5011669;28;20050;-81
2022/01/05 07:42:23;;;;;;;4.65;3.95;;;;;;;19.66;44.76;99601.78;5013740;28;20046;-81
2022/01/05 07:44:51;;;;;;;6.25;4.65;;;;;;;19.64;44.86;99583.13;5012274;28;20406;-81
2022/01/05 07:47:18;;;;;;;6.13;4.70;;;;;;;19.65;44.84;99578.63;5014025;28;20049;-81
2022/01/05 07:49:46;;;;;;;6.03;4.88;;;;;;;19.65;45.00;99567.91;5013740;28;20374;-81
2022/01/05 07:52:13;;;;;;;5.57;4.05;;;;;;;19.65;44.96;99566.03;5013965;28;20509;-81
2022/01/05 07:54:40;;;;;;;5.07;4.47;;;;;;;19.65;44.99;99560.69;5013846;28;20054;-81
2022/01/05 07:57:07;;;;;;;5.53;4.70;;;;;;;19.65;44.84;99566.03;5012871;28;20053;-82
2022/01/05 07:59:35;;;;;;;5.35;4.80;;;;;;;19.65;44.92;99560.69;5012947;28;20057;-82
2022/01/05 08:02:03;;;;;;;6.28;4.20;;;;;;;19.63;44.94;99554.63;5012180;28;20052;-83
2022/01/05 08:04:30;;;;;;;5.15;4.45;;;;;;;19.62;44.89;99547.56;5014220;28;20514;-82
2022/01/05 08:06:58;;;;;;;5.35;4.30;;;;;;;19.63;44.96;99549.25;5045698;28;20077;-82
2022/01/05 08:09:28;;;;;;;6.10;4.93;;;;;;;19.63;44.75;99540.34;4996222;28;20045;-82
2022/01/05 08:11:58;;;;;;;5.95;4.78;;;;;;;19.63;44.62;99549.25;5013409;28;20049;-82
2022/01/05 08:14:25;;;;;;;4.88;4.00;;;;;;;19.63;44.68;99557.31;5012434;28;20066;-82
2022/01/05 08:16:53;;;;;;;5.03;4.13;;;;;;;19.63;44.70;99560.00;5013984;28;20072;-83
2022/01/05 08:19:20;;;;;;;5.22;4.43;;;;;;;19.61;44.83;99545.91;5013831;28;20042;-83
2022/01/05 08:21:48;;;;;;;6.18;4.18;;;;;;;19.58;45.20;99548.88;4995433;28;20053;-81
2022/01/05 08:24:15;;;;;;;7.45;6.05;;;;;;;19.52;42.60;99544.16;5011257;28;20045;-81
2022/01/05 08:26:42;;;;;;;5.35;4.78;;;;;;;19.45;45.87;99559.25;5012700;28;20409;-81
2022/01/05 08:29:10;;;;;;;6.55;4.57;;;;;;;19.43;45.85;99558.56;5015933;28;20042;-81
2022/01/05 08:31:37;;;;;;;5.32;4.72;;;;;;;19.42;45.39;99551.53;5028934;28;20421;-85
2022/01/05 08:34:05;;;;;;;5.63;4.70;;;;;;;19.42;45.47;99540.78;5037151;28;20072;-84
2022/01/05 08:36:32;;;;;;;5.80;4.53;;;;;;;19.42;45.73;99535.41;5037309;28;20053;-84
2022/01/05 08:39:01;;;;;;;5.18;4.28;;;;;;;19.41;45.62;99523.00;5036652;28;20050;-85
2022/01/05 08:41:31;;;;;;;5.03;4.40;;;;;;;19.41;45.78;99531.06;5037618;28;20050;-85
2022/01/05 08:43:58;;;;;;;4.65;4.18;;;;;;;19.41;45.85;99525.69;5037102;28;20477;-83
2022/01/05 08:46:26;;;;;;;5.53;4.63;;;;;;;19.42;45.93;99555.03;5033752;28;20097;-84
2022/01/05 08:48:53;;;;;;;5.50;4.35;;;;;;;19.41;45.74;99555.22;5017100;28;20049;-84
2022/01/05 08:51:20;;;;;;;5.55;4.25;;;;;;;19.41;45.82;99539.13;5019391;28;20045;-85
2022/01/05 08:53:48;;;;;;;5.53;4.32;;;;;;;19.40;45.86;99542.78;5000341;28;20057;-84
2022/01/05 08:56:15;;;;;;;4.82;4.15;;;;;;;19.40;45.93;99551.66;5016732;28;20046;-85
2022/01/05 08:58:43;;;;;;;4.93;3.97;;;;;;;19.40;46.07;99540.94;5016250;28;20050;-83
2022/01/05 09:01:12;;;;;;;5.88;4.30;;;;;;;19.39;45.89;99552.69;5016144;28;20410;-84
2022/01/05 09:03:40;;;;;;;6.30;4.40;;;;;;;19.39;45.75;99557.22;5014826;28;20050;-81
2022/01/05 09:06:08;;;;;;;4.15;3.75;;;;;;;19.39;45.77;99554.53;5016050;28;20045;-81
2022/01/05 09:08:37;;;;;;;4.85;4.13;;;;;;;19.40;45.85;99574.97;5015573;28;20076;-81
2022/01/05 09:11:07;;;;;;;5.07;3.83;;;;;;;19.39;45.77;99565.25;5015352;28;20041;-82
2022/01/05 09:13:35;;;;;;;4.35;3.95;;;;;;;19.36;45.86;99569.09;5015531;28;20054;-87
2022/01/05 09:16:03;;;;;;;5.07;4.03;;;;;;;19.35;45.65;99561.22;5015299;28;20098;-82
2022/01/05 09:18:30;;;;;;;4.60;4.20;;;;;;;19.34;45.82;99568.44;5015320;28;20049;-82
2022/01/05 09:20:58;;;;;;;4.82;4.32;;;;;;;19.35;45.85;99574.63;5015180;28;20490;-82
2022/01/05 09:23:25;;;;;;;4.72;3.90;;;;;;;19.35;45.88;99574.63;5015861;28;20049;-82
2022/01/05 09:25:53;;;;;;;5.20;4.70;;;;;;;19.37;45.63;99572.66;5015272;28;20386;-82
2022/01/05 09:28:20;;;;;;;5.32;4.70;;;;;;;19.37;46.08;99568.13;5015488;28;20046;-82
2022/01/05 09:30:48;;;;;;;4.75;4.20;;;;;;;19.38;45.96;99568.94;5018058;28;20048;-82
2022/01/05 09:33:15;;;;;;;3.72;3.30;;;;;;;19.40;45.57;99572.31;5014579;28;20042;-82
2022/01/05 09:35:45;;;;;;;5.65;4.38;;;;;;;19.40;45.64;99567.78;5015373;28;20049;-82
2022/01/05 09:43:56;;;;;;;4.50;4.05;;;;;;;19.42;45.54;99565.78;5014928;28;20049;-83
2022/01/05 09:46:32;;;;;;;7.05;4.25;;;;;;;19.42;45.68;99560.41;5014871;28;20045;-82
2022/01/05 09:49:17;;;;;;;5.25;4.57;;;;;;;19.43;45.66;99563.94;5013192;28;20057;-81
2022/01/05 09:51:51;;;;;;;7.65;4.80;;;;;;;19.42;45.69;99570.31;5014658;28;20057;-82
2022/01/05 09:54:18;;;;;;;7.70;4.95;;;;;;;19.42;45.73;99573.00;5014546;28;20496;-81
2022/01/05 09:57:05;;;;;;;6.28;4.95;;;;;;;19.39;45.89;99567.94;5014743;28;20046;-81
2022/01/05 09:59:35;;;;;;;7.18;5.82;;;;;;;19.37;45.88;99565.44;5014339;28;20046;-81
2022/01/05 10:02:20;;;;;;;6.45;5.50;;;;;;;19.34;45.88;99563.06;5013450;28;20057;-81
2022/01/05 10:04:47;;;;;;;7.38;6.60;;;;;;;19.33;45.94;99547.13;5014309;28;20051;-83
2022/01/05 10:07:15;;;;;;;7.78;6.38;;;;;;;19.30;45.24;99558.19;5013149;28;20105;-81
2022/01/05 10:09:44;;;;;;;9.95;8.02;;;;;;;19.27;44.95;99535.19;5013510;28;20037;-82
2022/01/05 10:12:13;;;;;;;9.18;6.82;;;;;;;19.28;45.16;99569.06;4995909;28;20049;-82
2022/01/05 10:14:43;;;;;;;8.68;7.75;;;;;;;19.29;45.20;99551.16;4996052;28;20050;-83
2022/01/05 10:17:21;;;;;;;8.15;7.30;;;;;;;19.29;45.21;99556.53;4994854;28;20077;-83
2022/01/05 10:19:56;;;;;;;8.48;7.35;;;;;;;19.29;45.30;99559.19;4995130;28;20049;-84
2022/01/05 10:22:32;;;;;;;9.43;7.45;;;;;;;19.29;45.24;99569.94;5026260;28;20058;-83
2022/01/05 10:25:06;;;;;;;12.40;8.02;;;;;;;19.31;45.19;99567.91;4994840;28;20094;-82
2022/01/05 10:27:34;;;;;;;9.88;7.95;;;;;;;19.31;45.34;99567.91;4995034;28;20057;-82
2022/01/05 10:30:04;;;;;;;10.00;7.97;;;;;;;19.31;45.37;99559.88;4995372;28;20053;-82
2022/01/05 10:32:35;;;;;;;9.80;8.13;;;;;;;19.30;45.32;99555.50;5010096;28;20057;-83
2022/01/05 10:35:17;;;;;;;10.20;8.38;;;;;;;19.30;45.54;99550.97;5034762;28;20053;-83
2022/01/05 10:37:55;;;;;;;9.73;7.60;;;;;;;19.30;45.54;99550.13;5033639;28;20488;-82
2022/01/05 10:40:22;;;;;;;9.75;8.32;;;;;;;19.32;45.26;99548.13;5033908;28;20041;-88
2022/01/05 10:42:56;;;;;;;12.57;8.20;;;;;;;19.32;45.14;99553.50;5033977;28;20089;-82
2022/01/05 10:45:41;;;;;;;9.77;8.77;;;;;;;19.32;45.37;99551.63;5033754;28;20049;-83
2022/01/05 10:48:11;;;;;;;10.57;8.27;;;;;;;19.32;45.16;99545.44;5025605;28;20107;-81
2022/01/05 10:50:42;;;;;;;11.13;9.10;;;;;;;19.31;45.33;99539.22;5014387;28;20045;-80
2022/01/05 10:53:20;;;;;;;13.05;10.15;;;;;;;19.31;45.65;99541.09;5013525;28;20053;-80
2022/01/05 10:55:47;;;;;;;11.85;9.48;;;;;;;19.31;45.71;99538.41;5014039;28;20061;-82
2022/01/05 10:58:17;;;;;;;11.57;9.18;;;;;;;19.31;45.70;99543.75;5014337;28;20046;-86
2022/01/05 11:00:52;;;;;;;9.90;8.73;;;;;;;19.33;45.66;99531.03;5013194;28;20053;-83
2022/01/05 11:03:37;;;;;;;10.10;9.05;;;;;;;19.34;45.74;99538.91;5014085;28;20053;-79
2022/01/05 11:06:13;;;;;;;8.45;7.55;;;;;;;19.33;45.68;99539.94;5013972;28;20049;-84
2022/01/05 11:09:03;;;;;;;10.70;8.20;;;;;;;19.33;45.73;99549.81;5011111;28;20057;-86
2022/01/05 11:11:41;;;;;;;9.15;8.25;;;;;;;19.32;45.73;99548.97;4994583;28;20042;-82
2022/01/05 11:14:09;;;;;;;10.68;7.78;;;;;;;19.32;45.84;99550.81;4995269;28;20061;-80
2022/01/05 11:16:41;;;;;;;10.32;7.32;;;;;;;19.33;46.45;99547.13;5013782;28;20053;-82
2022/01/05 11:19:23;;;;;;;10.48;8.25;;;;;;;19.32;46.62;99550.81;5013820;28;20061;-81
2022/01/05 11:21:57;;;;;;;9.65;7.63;;;;;;;19.31;47.04;99549.97;5013463;28;20072;-81
2022/01/05 11:24:25;;;;;;;9.75;8.50;;;;;;;19.31;47.63;99562.53;5011892;28;20056;-82
2022/01/05 11:26:53;;;;;;;8.90;7.60;;;;;;;19.29;48.30;99553.84;5013334;28;20049;-82
2022/01/05 11:29:53;;;;;;;11.70;8.27;;;;;;;19.27;49.04;99554.81;5013373;28;20517;-82
2022/01/05 11:32:27;;;;;;;10.35;7.93;;;;;;;19.26;49.23;99560.34;4999571;28;20486;-82
2022/01/05 11:34:55;;;;;;;8.73;7.88;;;;;;;19.26;49.71;99552.31;5020560;28;20056;-84
2022/01/05 11:37:23;;;;;;;12.48;7.78;;;;;;;19.25;49.98;99566.72;5031610;28;20083;-84
2022/01/05 11:39:53;;;;;;;9.98;7.80;;;;;;;19.23;50.11;99558.81;5032383;28;20050;-84
2022/01/05 11:42:39;;;;;;;9.35;7.80;;;;;;;19.24;49.93;99562.34;5033236;28;20045;-82
2022/01/05 11:45:08;;;;;;;11.07;8.30;;;;;;;19.23;50.78;99564.19;5017068;28;20049;-83